sensor_id;sensor_type;location;lat;lon;timestamp;pressure;altitude;pressure_sealevel;temperature;humidity
10940;BME280;5522;42.696;23.494;2022-10-22T00:01:19;53741.22;;;-139.68;100.00
10940;BME280;5522;42.696;23.494;2022-10-22T00:03:47;53765.34;;;-139.68;100.00
10940;BME280;5522;42.696;23.494;2022-10-22T00:06:14;53759.31;;;-139.68;100.00
10940;BME280;5522;42.696;23.494;2022-10-22T00:08:40;53723.13;;;-139.68;100.00
10940;BME280;5522;42.696;23.494;2022-10-22T00:11:09;53729.16;;;-139.68;100.00
10940;BME280;5522;42.696;23.494;2022-10-22T00:13:36;53731.19;;;-139.68;100.00
10940;BME280;5522;42.696;23.494;2022-10-22T00:16:04;53751.28;;;-139.68;100.00
10940;BME280;5522;42.696;23.494;2022-10-22T00:18:31;53759.31;;;-139.68;100.00
10940;BME280;5522;42.696;23.494;2022-10-22T00:20:58;53723.13;;;-139.68;100.00
10940;BME280;5522;42.696;23.494;2022-10-22T00:23:25;53725.16;;;-139.68;100.00
10940;BME280;5522;42.696;23.494;2022-10-22T00:25:52;53743.25;;;-139.68;100.00
10940;BME280;5522;42.696;23.494;2022-10-22T00:28:19;53753.28;;;-139.68;100.00
10940;BME280;5522;42.696;23.494;2022-10-22T00:30:46;53799.53;;;-139.68;100.00
10940;BME280;5522;42.696;23.494;2022-10-22T00:33:14;53757.31;;;-139.68;100.00
10940;BME280;5522;42.696;23.494;2022-10-22T00:35:42;53741.22;;;-139.68;100.00
10940;BME280;5522;42.696;23.494;2022-10-22T00:38:09;53721.13;;;-139.68;100.00
10940;BME280;5522;42.696;23.494;2022-10-22T00:40:36;53777.41;;;-139.68;100.00
10940;BME280;5522;42.696;23.494;2022-10-22T00:43:03;53741.22;;;-139.68;100.00
10940;BME280;5522;42.696;23.494;2022-10-22T00:45:30;53775.41;;;-139.68;100.00
10940;BME280;5522;42.696;23.494;2022-10-22T00:47:59;53807.56;;;-139.68;100.00
10940;BME280;5522;42.696;23.494;2022-10-22T00:50:30;53755.31;;;-139.68;100.00
10940;BME280;5522;42.696;23.494;2022-10-22T00:53:00;53751.28;;;-139.68;100.00
10940;BME280;5522;42.696;23.494;2022-10-22T00:55:28;53751.28;;;-139.68;100.00
10940;BME280;5522;42.696;23.494;2022-10-22T00:57:56;53779.44;;;-139.68;100.00
10940;BME280;5522;42.696;23.494;2022-10-22T01:05:40;53723.13;;;-139.68;100.00
10940;BME280;5522;42.696;23.494;2022-10-22T01:08:13;53727.16;;;-139.68;100.00
10940;BME280;5522;42.696;23.494;2022-10-22T01:10:52;53743.25;;;-139.68;100.00
10940;BME280;5522;42.696;23.494;2022-10-22T01:13:28;53729.16;;;-139.68;100.00
10940;BME280;5522;42.696;23.494;2022-10-22T01:16:02;53695.00;;;-139.68;100.00
10940;BME280;5522;42.696;23.494;2022-10-22T01:18:36;53727.16;;;-139.68;100.00
10940;BME280;5522;42.696;23.494;2022-10-22T01:21:18;53747.25;;;-139.68;100.00
10940;BME280;5522;42.696;23.494;2022-10-22T01:27:06;53688.97;;;-139.68;100.00
10940;BME280;5522;42.696;23.494;2022-10-22T01:29:39;53707.06;;;-139.68;100.00
10940;BME280;5522;42.696;23.494;2022-10-22T01:32:10;53727.16;;;-139.68;100.00
10940;BME280;5522;42.696;23.494;2022-10-22T01:34:40;53747.25;;;-139.68;100.00
10940;BME280;5522;42.696;23.494;2022-10-22T01:37:11;53715.09;;;-139.68;100.00
10940;BME280;5522;42.696;23.494;2022-10-22T01:39:41;53775.41;;;-139.68;100.00
10940;BME280;5522;42.696;23.494;2022-10-22T01:42:10;53753.28;;;-139.68;100.00
10940;BME280;5522;42.696;23.494;2022-10-22T01:44:39;53783.44;;;-139.68;100.00
10940;BME280;5522;42.696;23.494;2022-10-22T01:47:13;53739.22;;;-139.68;100.00
10940;BME280;5522;42.696;23.494;2022-10-22T01:50:05;53753.28;;;-139.68;100.00
10940;BME280;5522;42.696;23.494;2022-10-22T01:52:51;53747.25;;;-139.68;100.00
10940;BME280;5522;42.696;23.494;2022-10-22T01:55:29;53735.19;;;-139.68;100.00
10940;BME280;5522;42.696;23.494;2022-10-22T01:58:05;53731.19;;;-139.68;100.00
10940;BME280;5522;42.696;23.494;2022-10-22T02:00:39;53735.19;;;-139.68;100.00
10940;BME280;5522;42.696;23.494;2022-10-22T02:03:12;53729.16;;;-139.68;100.00
10940;BME280;5522;42.696;23.494;2022-10-22T02:05:45;53711.09;;;-139.68;100.00
10940;BME280;5522;42.696;23.494;2022-10-22T02:08:16;53731.19;;;-139.68;100.00
10940;BME280;5522;42.696;23.494;2022-10-22T02:10:47;53721.13;;;-139.68;100.00
10940;BME280;5522;42.696;23.494;2022-10-22T02:13:17;53686.97;;;-139.68;100.00
10940;BME280;5522;42.696;23.494;2022-10-22T02:15:49;53739.22;;;-139.68;100.00
10940;BME280;5522;42.696;23.494;2022-10-22T02:18:19;53747.25;;;-139.68;100.00
10940;BME280;5522;42.696;23.494;2022-10-22T02:20:47;53703.03;;;-139.68;100.00
10940;BME280;5522;42.696;23.494;2022-10-22T02:23:15;53723.13;;;-139.68;100.00
10940;BME280;5522;42.696;23.494;2022-10-22T02:25:46;53739.22;;;-139.68;100.00
10940;BME280;5522;42.696;23.494;2022-10-22T02:28:18;53695.00;;;-139.68;100.00
10940;BME280;5522;42.696;23.494;2022-10-22T02:30:54;53737.22;;;-139.68;100.00
10940;BME280;5522;42.696;23.494;2022-10-22T02:33:26;53678.91;;;-139.68;100.00
10940;BME280;5522;42.696;23.494;2022-10-22T02:35:54;53693.00;;;-139.68;100.00
10940;BME280;5522;42.696;23.494;2022-10-22T02:38:22;53713.09;;;-139.68;100.00
10940;BME280;5522;42.696;23.494;2022-10-22T02:40:49;53727.16;;;-139.68;100.00
10940;BME280;5522;42.696;23.494;2022-10-22T02:43:17;53739.22;;;-139.68;100.00
10940;BME280;5522;42.696;23.494;2022-10-22T02:45:44;53701.03;;;-139.68;100.00
10940;BME280;5522;42.696;23.494;2022-10-22T02:48:12;53695.00;;;-139.68;100.00
10940;BME280;5522;42.696;23.494;2022-10-22T02:50:39;53707.06;;;-139.68;100.00
10940;BME280;5522;42.696;23.494;2022-10-22T02:53:06;53682.94;;;-139.68;100.00
10940;BME280;5522;42.696;23.494;2022-10-22T02:55:33;53725.16;;;-139.68;100.00
10940;BME280;5522;42.696;23.494;2022-10-22T02:58:00;53735.19;;;-139.68;100.00
10940;BME280;5522;42.696;23.494;2022-10-22T03:00:27;53688.97;;;-139.68;100.00
10940;BME280;5522;42.696;23.494;2022-10-22T03:02:53;53711.09;;;-139.68;100.00
10940;BME280;5522;42.696;23.494;2022-10-22T03:05:21;53715.09;;;-139.68;100.00
10940;BME280;5522;42.696;23.494;2022-10-22T03:07:48;53715.09;;;-139.68;100.00
10940;BME280;5522;42.696;23.494;2022-10-22T03:10:15;53723.13;;;-139.68;100.00
10940;BME280;5522;42.696;23.494;2022-10-22T03:12:42;53684.94;;;-139.68;100.00
10940;BME280;5522;42.696;23.494;2022-10-22T03:15:09;53727.16;;;-139.68;100.00
10940;BME280;5522;42.696;23.494;2022-10-22T03:17:36;53711.09;;;-139.68;100.00
10940;BME280;5522;42.696;23.494;2022-10-22T03:20:03;53695.00;;;-139.68;100.00
10940;BME280;5522;42.696;23.494;2022-10-22T03:22:33;53682.94;;;-139.68;100.00
10940;BME280;5522;42.696;23.494;2022-10-22T03:25:05;53741.22;;;-139.68;100.00
10940;BME280;5522;42.696;23.494;2022-10-22T03:27:34;53723.13;;;-139.68;100.00
10940;BME280;5522;42.696;23.494;2022-10-22T03:30:03;53693.00;;;-139.68;100.00
10940;BME280;5522;42.696;23.494;2022-10-22T03:32:30;53695.00;;;-139.68;100.00
10940;BME280;5522;42.696;23.494;2022-10-22T03:34:57;53711.09;;;-139.68;100.00
10940;BME280;5522;42.696;23.494;2022-10-22T03:37:24;53735.19;;;-139.68;100.00
10940;BME280;5522;42.696;23.494;2022-10-22T03:39:53;53711.09;;;-139.68;100.00
10940;BME280;5522;42.696;23.494;2022-10-22T03:42:20;53727.16;;;-139.68;100.00
10940;BME280;5522;42.696;23.494;2022-10-22T03:44:47;53672.88;;;-139.68;100.00
10940;BME280;5522;42.696;23.494;2022-10-22T03:47:14;53723.13;;;-139.68;100.00
10940;BME280;5522;42.696;23.494;2022-10-22T03:49:41;53745.25;;;-139.68;100.00
10940;BME280;5522;42.696;23.494;2022-10-22T03:52:10;53697.00;;;-139.68;100.00
10940;BME280;5522;42.696;23.494;2022-10-22T03:54:37;53676.91;;;-139.68;100.00
10940;BME280;5522;42.696;23.494;2022-10-22T03:57:06;53690.97;;;-139.68;100.00
10940;BME280;5522;42.696;23.494;2022-10-22T03:59:34;53727.16;;;-139.68;100.00
10940;BME280;5522;42.696;23.494;2022-10-22T04:02:00;53717.13;;;-139.68;100.00
10940;BME280;5522;42.696;23.494;2022-10-22T04:04:27;53711.09;;;-139.68;100.00
10940;BME280;5522;42.696;23.494;2022-10-22T04:06:54;53693.00;;;-139.68;100.00
10940;BME280;5522;42.696;23.494;2022-10-22T04:09:21;53721.13;;;-139.68;100.00
10940;BME280;5522;42.696;23.494;2022-10-22T04:11:48;53729.16;;;-139.68;100.00
10940;BME280;5522;42.696;23.494;2022-10-22T04:14:16;53690.97;;;-139.68;100.00
10940;BME280;5522;42.696;23.494;2022-10-22T04:16:43;53707.06;;;-139.68;100.00
10940;BME280;5522;42.696;23.494;2022-10-22T04:19:10;53721.13;;;-139.68;100.00
10940;BME280;5522;42.696;23.494;2022-10-22T04:21:36;53721.13;;;-139.68;100.00
10940;BME280;5522;42.696;23.494;2022-10-22T04:24:03;53707.06;;;-139.68;100.00
10940;BME280;5522;42.696;23.494;2022-10-22T04:26:30;53735.19;;;-139.68;100.00
10940;BME280;5522;42.696;23.494;2022-10-22T04:28:57;53697.00;;;-139.68;100.00
10940;BME280;5522;42.696;23.494;2022-10-22T04:31:25;53775.41;;;-139.68;100.00
10940;BME280;5522;42.696;23.494;2022-10-22T04:33:53;53715.09;;;-139.68;100.00
10940;BME280;5522;42.696;23.494;2022-10-22T04:36:20;53686.97;;;-139.68;100.00
10940;BME280;5522;42.696;23.494;2022-10-22T04:38:51;53723.13;;;-139.68;100.00
10940;BME280;5522;42.696;23.494;2022-10-22T04:41:20;53684.94;;;-139.68;100.00
10940;BME280;5522;42.696;23.494;2022-10-22T04:43:47;53711.09;;;-139.68;100.00
10940;BME280;5522;42.696;23.494;2022-10-22T04:46:16;53727.16;;;-139.68;100.00
10940;BME280;5522;42.696;23.494;2022-10-22T04:48:45;53763.34;;;-139.68;100.00
10940;BME280;5522;42.696;23.494;2022-10-22T04:51:14;53715.09;;;-139.68;100.00
10940;BME280;5522;42.696;23.494;2022-10-22T04:53:41;53731.19;;;-139.68;100.00
10940;BME280;5522;42.696;23.494;2022-10-22T04:56:10;53701.03;;;-139.68;100.00
10940;BME280;5522;42.696;23.494;2022-10-22T04:58:37;53729.16;;;-139.68;100.00
10940;BME280;5522;42.696;23.494;2022-10-22T05:01:09;53731.19;;;-139.68;100.00
10940;BME280;5522;42.696;23.494;2022-10-22T05:03:36;53711.09;;;-139.68;100.00
10940;BME280;5522;42.696;23.494;2022-10-22T05:06:05;53711.09;;;-139.68;100.00
10940;BME280;5522;42.696;23.494;2022-10-22T05:08:32;53715.09;;;-139.68;100.00
10940;BME280;5522;42.696;23.494;2022-10-22T05:10:59;53735.19;;;-139.68;100.00
10940;BME280;5522;42.696;23.494;2022-10-22T05:13:26;53697.00;;;-139.68;100.00
10940;BME280;5522;42.696;23.494;2022-10-22T05:15:52;53723.13;;;-139.68;100.00
10940;BME280;5522;42.696;23.494;2022-10-22T05:18:19;53672.88;;;-139.68;100.00
10940;BME280;5522;42.696;23.494;2022-10-22T05:20:46;53713.09;;;-139.68;100.00
10940;BME280;5522;42.696;23.494;2022-10-22T05:23:14;53739.22;;;-139.68;100.00
10940;BME280;5522;42.696;23.494;2022-10-22T05:25:41;53719.13;;;-139.68;100.00
10940;BME280;5522;42.696;23.494;2022-10-22T05:28:08;53699.03;;;-139.68;100.00
10940;BME280;5522;42.696;23.494;2022-10-22T05:30:34;53741.22;;;-139.68;100.00
10940;BME280;5522;42.696;23.494;2022-10-22T05:33:01;53725.16;;;-139.68;100.00
10940;BME280;5522;42.696;23.494;2022-10-22T05:35:28;53755.31;;;-139.68;100.00
10940;BME280;5522;42.696;23.494;2022-10-22T05:37:55;53731.19;;;-139.68;100.00
10940;BME280;5522;42.696;23.494;2022-10-22T05:40:23;53715.09;;;-139.68;100.00
10940;BME280;5522;42.696;23.494;2022-10-22T05:42:50;53735.19;;;-139.68;100.00
10940;BME280;5522;42.696;23.494;2022-10-22T05:45:16;53773.41;;;-139.68;100.00
10940;BME280;5522;42.696;23.494;2022-10-22T05:47:43;53715.09;;;-139.68;100.00
10940;BME280;5522;42.696;23.494;2022-10-22T05:50:10;53743.25;;;-139.68;100.00
10940;BME280;5522;42.696;23.494;2022-10-22T05:52:37;53686.97;;;-139.68;100.00
10940;BME280;5522;42.696;23.494;2022-10-22T05:55:04;53711.09;;;-139.68;100.00
10940;BME280;5522;42.696;23.494;2022-10-22T05:57:32;53765.34;;;-139.68;100.00
10940;BME280;5522;42.696;23.494;2022-10-22T05:59:59;53711.09;;;-139.68;100.00
10940;BME280;5522;42.696;23.494;2022-10-22T06:02:26;53775.41;;;-139.68;100.00
10940;BME280;5522;42.696;23.494;2022-10-22T06:04:53;53767.38;;;-139.68;100.00
10940;BME280;5522;42.696;23.494;2022-10-22T06:07:20;53749.28;;;-139.68;100.00
10940;BME280;5522;42.696;23.494;2022-10-22T06:09:46;53737.22;;;-139.68;100.00
10940;BME280;5522;42.696;23.494;2022-10-22T06:12:14;53737.22;;;-139.68;100.00
10940;BME280;5522;42.696;23.494;2022-10-22T06:14:42;53737.22;;;-139.68;100.00
10940;BME280;5522;42.696;23.494;2022-10-22T06:17:10;53719.13;;;-139.68;100.00
10940;BME280;5522;42.696;23.494;2022-10-22T06:19:37;53773.41;;;-139.68;100.00
10940;BME280;5522;42.696;23.494;2022-10-22T06:22:04;53733.19;;;-139.68;100.00
10940;BME280;5522;42.696;23.494;2022-10-22T06:24:31;53751.28;;;-139.68;100.00
10940;BME280;5522;42.696;23.494;2022-10-22T06:26:58;53767.38;;;-139.68;100.00
10940;BME280;5522;42.696;23.494;2022-10-22T06:29:25;53753.28;;;-139.68;100.00
10940;BME280;5522;42.696;23.494;2022-10-22T06:31:53;53753.28;;;-139.68;100.00
10940;BME280;5522;42.696;23.494;2022-10-22T06:34:20;53781.44;;;-139.68;100.00
10940;BME280;5522;42.696;23.494;2022-10-22T06:36:47;53793.50;;;-139.68;92.90
10940;BME280;5522;42.696;23.494;2022-10-22T06:39:16;53779.44;;;-139.68;86.44
10940;BME280;5522;42.696;23.494;2022-10-22T06:41:43;53813.59;;;-139.68;81.64
10940;BME280;5522;42.696;23.494;2022-10-22T06:44:13;53787.47;;;-139.68;74.88
10940;BME280;5522;42.696;23.494;2022-10-22T06:46:40;53809.59;;;-139.68;69.58
10940;BME280;5522;42.696;23.494;2022-10-22T06:49:11;53845.78;;;-139.68;56.83
10940;BME280;5522;42.696;23.494;2022-10-22T06:51:38;53819.63;;;-139.68;57.82
10940;BME280;5522;42.696;23.494;2022-10-22T06:54:05;53819.63;;;-139.68;49.94
10940;BME280;5522;42.696;23.494;2022-10-22T06:56:32;53791.50;;;-139.68;47.76
10940;BME280;5522;42.696;23.494;2022-10-22T06:58:58;53825.66;;;-139.68;47.25
10940;BME280;5522;42.696;23.494;2022-10-22T07:01:27;53829.69;;;-139.68;44.11
10940;BME280;5522;42.696;23.494;2022-10-22T07:03:54;53837.72;;;-139.68;41.18
10940;BME280;5522;42.696;23.494;2022-10-22T07:06:23;53839.75;;;-139.68;42.73
10940;BME280;5522;42.696;23.494;2022-10-22T07:08:51;53823.66;;;-139.68;40.43
10940;BME280;5522;42.696;23.494;2022-10-22T07:11:20;53892.00;;;-139.68;41.08
10940;BME280;5522;42.696;23.494;2022-10-22T07:13:48;53851.81;;;-139.68;42.48
10940;BME280;5522;42.696;23.494;2022-10-22T07:16:16;53877.94;;;-139.68;41.31
10940;BME280;5522;42.696;23.494;2022-10-22T07:18:43;53845.78;;;-139.68;41.43
10940;BME280;5522;42.696;23.494;2022-10-22T07:21:11;53867.88;;;-139.68;39.26
10940;BME280;5522;42.696;23.494;2022-10-22T07:23:40;53853.81;;;-139.68;39.28
10940;BME280;5522;42.696;23.494;2022-10-22T07:26:07;53851.81;;;-139.68;38.79
10940;BME280;5522;42.696;23.494;2022-10-22T07:28:35;53831.69;;;-139.68;38.67
10940;BME280;5522;42.696;23.494;2022-10-22T07:31:02;53815.63;;;-139.68;38.45
10940;BME280;5522;42.696;23.494;2022-10-22T07:33:29;53867.88;;;-139.68;38.14
10940;BME280;5522;42.696;23.494;2022-10-22T07:35:57;53869.91;;;-139.68;38.41
10940;BME280;5522;42.696;23.494;2022-10-22T07:38:25;53855.81;;;-139.68;39.04
10940;BME280;5522;42.696;23.494;2022-10-22T07:40:53;53829.69;;;-139.68;38.12
10940;BME280;5522;42.696;23.494;2022-10-22T07:43:20;53831.69;;;-139.68;37.38
10940;BME280;5522;42.696;23.494;2022-10-22T07:45:47;53859.84;;;-139.68;36.18
10940;BME280;5522;42.696;23.494;2022-10-22T07:48:14;53863.88;;;-139.68;35.33
10940;BME280;5522;42.696;23.494;2022-10-22T07:50:41;53906.06;;;-139.68;33.24
10940;BME280;5522;42.696;23.494;2022-10-22T07:53:08;53843.75;;;-139.68;33.01
10940;BME280;5522;42.696;23.494;2022-10-22T07:55:35;53867.88;;;-139.68;35.02
10940;BME280;5522;42.696;23.494;2022-10-22T07:58:03;53843.75;;;-139.68;35.09
10940;BME280;5522;42.696;23.494;2022-10-22T08:00:30;53835.72;;;-139.68;35.68
10940;BME280;5522;42.696;23.494;2022-10-22T08:02:57;53859.84;;;-139.68;33.99
10940;BME280;5522;42.696;23.494;2022-10-22T08:05:23;53875.94;;;-139.68;32.54
10940;BME280;5522;42.696;23.494;2022-10-22T08:07:50;53879.94;;;-139.68;32.22
10940;BME280;5522;42.696;23.494;2022-10-22T08:10:17;53920.16;;;-139.68;33.02
10940;BME280;5522;42.696;23.494;2022-10-22T08:12:44;53871.91;;;-139.68;33.11
10940;BME280;5522;42.696;23.494;2022-10-22T08:15:12;53912.13;;;-139.68;31.55
10940;BME280;5522;42.696;23.494;2022-10-22T08:17:39;53871.91;;;-139.68;32.43
10940;BME280;5522;42.696;23.494;2022-10-22T08:20:07;53877.94;;;-139.68;31.53
10940;BME280;5522;42.696;23.494;2022-10-22T08:22:34;53863.88;;;-139.68;31.62
10940;BME280;5522;42.696;23.494;2022-10-22T08:25:00;53861.84;;;-139.68;31.08
10940;BME280;5522;42.696;23.494;2022-10-22T08:27:27;53871.91;;;-139.68;30.40
10940;BME280;5522;42.696;23.494;2022-10-22T08:29:54;53896.03;;;-139.68;30.32
10940;BME280;5522;42.696;23.494;2022-10-22T08:32:22;53896.03;;;-139.68;29.48
10940;BME280;5522;42.696;23.494;2022-10-22T08:34:49;53867.88;;;-139.68;29.65
10940;BME280;5522;42.696;23.494;2022-10-22T08:37:16;53894.03;;;-139.68;30.25
10940;BME280;5522;42.696;23.494;2022-10-22T08:39:43;53904.06;;;-139.68;29.87
10940;BME280;5522;42.696;23.494;2022-10-22T08:42:28;53902.06;;;-139.68;29.31
10940;BME280;5522;42.696;23.494;2022-10-22T08:45:09;53883.97;;;-139.68;29.64
10940;BME280;5522;42.696;23.494;2022-10-22T08:47:51;53871.91;;;-139.68;30.05
10940;BME280;5522;42.696;23.494;2022-10-22T08:50:30;53863.88;;;-139.68;30.10
10940;BME280;5522;42.696;23.494;2022-10-22T08:53:02;53855.81;;;-139.68;29.75
10940;BME280;5522;42.696;23.494;2022-10-22T08:55:32;53875.94;;;-139.68;29.40
10940;BME280;5522;42.696;23.494;2022-10-22T08:58:03;53863.88;;;-139.68;28.31
10940;BME280;5522;42.696;23.494;2022-10-22T09:00:36;53883.97;;;-139.68;28.26
10940;BME280;5522;42.696;23.494;2022-10-22T09:03:28;53916.13;;;-139.68;28.84
10940;BME280;5522;42.696;23.494;2022-10-22T09:06:01;53904.06;;;-139.68;28.23
10940;BME280;5522;42.696;23.494;2022-10-22T09:08:30;53930.22;;;-139.68;28.44
10940;BME280;5522;42.696;23.494;2022-10-22T09:11:02;53904.06;;;-139.68;28.44
10940;BME280;5522;42.696;23.494;2022-10-22T09:13:31;53912.13;;;-139.68;29.17
10940;BME280;5522;42.696;23.494;2022-10-22T09:16:00;53936.22;;;-139.68;29.02
10940;BME280;5522;42.696;23.494;2022-10-22T09:18:35;53898.03;;;-139.68;28.73
10940;BME280;5522;42.696;23.494;2022-10-22T09:21:13;53869.91;;;-139.68;29.69
10940;BME280;5522;42.696;23.494;2022-10-22T09:23:54;53881.97;;;-139.68;29.50
10940;BME280;5522;42.696;23.494;2022-10-22T09:26:24;53920.16;;;-139.68;28.54
10940;BME280;5522;42.696;23.494;2022-10-22T09:28:51;53863.88;;;-139.68;28.99
10940;BME280;5522;42.696;23.494;2022-10-22T09:31:18;53867.88;;;-139.68;28.30
10940;BME280;5522;42.696;23.494;2022-10-22T09:33:49;53914.13;;;-139.68;29.07
10940;BME280;5522;42.696;23.494;2022-10-22T09:36:19;53890.00;;;-139.68;28.52
10940;BME280;5522;42.696;23.494;2022-10-22T09:38:49;53871.91;;;-139.68;29.87
10940;BME280;5522;42.696;23.494;2022-10-22T09:41:17;53900.06;;;-139.68;28.64
10940;BME280;5522;42.696;23.494;2022-10-22T09:43:46;53892.00;;;-139.68;27.67
10940;BME280;5522;42.696;23.494;2022-10-22T09:46:17;53924.16;;;-139.68;27.29
10940;BME280;5522;42.696;23.494;2022-10-22T09:48:49;53910.09;;;-139.68;28.60
10940;BME280;5522;42.696;23.494;2022-10-22T09:51:19;53906.06;;;-139.68;28.20
10940;BME280;5522;42.696;23.494;2022-10-22T09:53:54;53875.94;;;-139.68;27.61
10940;BME280;5522;42.696;23.494;2022-10-22T09:56:24;53916.13;;;-139.68;27.44
10940;BME280;5522;42.696;23.494;2022-10-22T09:58:51;53906.06;;;-139.68;26.15
10940;BME280;5522;42.696;23.494;2022-10-22T10:01:23;53885.97;;;-139.68;25.83
10940;BME280;5522;42.696;23.494;2022-10-22T10:03:52;53883.97;;;-139.68;25.31
10940;BME280;5522;42.696;23.494;2022-10-22T10:06:21;53890.00;;;-139.68;26.12
10940;BME280;5522;42.696;23.494;2022-10-22T10:08:48;53904.06;;;-139.68;26.06
10940;BME280;5522;42.696;23.494;2022-10-22T10:11:20;53920.16;;;-139.68;26.40
10940;BME280;5522;42.696;23.494;2022-10-22T10:13:54;53912.13;;;-139.68;26.48
10940;BME280;5522;42.696;23.494;2022-10-22T10:16:40;53912.13;;;-139.68;26.17
10940;BME280;5522;42.696;23.494;2022-10-22T10:19:22;53900.06;;;-139.68;26.21
10940;BME280;5522;42.696;23.494;2022-10-22T10:21:59;53888.00;;;-139.68;26.72
10940;BME280;5522;42.696;23.494;2022-10-22T10:24:33;53904.06;;;-139.68;26.39
10940;BME280;5522;42.696;23.494;2022-10-22T10:27:11;53906.06;;;-139.68;26.17
10940;BME280;5522;42.696;23.494;2022-10-22T10:29:46;53877.94;;;-139.68;26.05
10940;BME280;5522;42.696;23.494;2022-10-22T10:32:26;53883.97;;;-139.68;26.06
10940;BME280;5522;42.696;23.494;2022-10-22T10:35:06;53932.22;;;-139.68;25.88
10940;BME280;5522;42.696;23.494;2022-10-22T10:37:42;53920.16;;;-139.68;26.16
10940;BME280;5522;42.696;23.494;2022-10-22T10:40:22;53906.06;;;-139.68;25.84
10940;BME280;5522;42.696;23.494;2022-10-22T10:42:54;53843.75;;;-139.68;26.74
10940;BME280;5522;42.696;23.494;2022-10-22T10:45:27;53916.13;;;-139.68;26.87
10940;BME280;5522;42.696;23.494;2022-10-22T10:48:08;53871.91;;;-139.68;27.89
10940;BME280;5522;42.696;23.494;2022-10-22T10:50:50;53883.97;;;-139.68;28.03
10940;BME280;5522;42.696;23.494;2022-10-22T10:53:26;53918.16;;;-139.68;27.86
10940;BME280;5522;42.696;23.494;2022-10-22T10:56:00;53881.97;;;-139.68;27.91
10940;BME280;5522;42.696;23.494;2022-10-22T10:58:35;53924.16;;;-139.68;29.86
10940;BME280;5522;42.696;23.494;2022-10-22T11:01:17;53914.13;;;-139.68;29.83
10940;BME280;5522;42.696;23.494;2022-10-22T11:04:23;53877.94;;;-139.68;32.83
10940;BME280;5522;42.696;23.494;2022-10-22T11:07:04;53879.94;;;-139.68;35.14
10940;BME280;5522;42.696;23.494;2022-10-22T11:09:35;53877.94;;;-139.68;34.58
10940;BME280;5522;42.696;23.494;2022-10-22T11:12:09;53883.97;;;-139.68;35.88
10940;BME280;5522;42.696;23.494;2022-10-22T11:14:43;53875.94;;;-139.68;36.51
10940;BME280;5522;42.696;23.494;2022-10-22T11:17:17;53873.91;;;-139.68;36.99
10940;BME280;5522;42.696;23.494;2022-10-22T11:19:47;53885.97;;;-139.68;36.74
10940;BME280;5522;42.696;23.494;2022-10-22T11:22:24;53912.13;;;-139.68;38.10
10940;BME280;5522;42.696;23.494;2022-10-22T11:24:54;53900.06;;;-139.68;39.34
10940;BME280;5522;42.696;23.494;2022-10-22T11:27:30;53922.16;;;-139.68;38.45
10940;BME280;5522;42.696;23.494;2022-10-22T11:30:02;53898.03;;;-139.68;36.87
10940;BME280;5522;42.696;23.494;2022-10-22T11:32:30;53892.00;;;-139.68;38.06
10940;BME280;5522;42.696;23.494;2022-10-22T11:35:02;53928.19;;;-139.68;38.15
10940;BME280;5522;42.696;23.494;2022-10-22T11:37:32;53898.03;;;-139.68;38.53
10940;BME280;5522;42.696;23.494;2022-10-22T11:40:05;53888.00;;;-139.68;36.93
10940;BME280;5522;42.696;23.494;2022-10-22T11:42:37;53906.06;;;-139.68;40.03
10940;BME280;5522;42.696;23.494;2022-10-22T11:45:25;53912.13;;;-139.68;38.84
10940;BME280;5522;42.696;23.494;2022-10-22T11:47:57;53871.91;;;-139.68;39.04
10940;BME280;5522;42.696;23.494;2022-10-22T11:50:25;53863.88;;;-139.68;40.32
10940;BME280;5522;42.696;23.494;2022-10-22T11:53:00;53892.00;;;-139.68;40.88
10940;BME280;5522;42.696;23.494;2022-10-22T11:55:43;53922.16;;;-139.68;40.23
10940;BME280;5522;42.696;23.494;2022-10-22T11:58:39;53890.00;;;-139.68;42.23
10940;BME280;5522;42.696;23.494;2022-10-22T12:01:25;53892.00;;;-139.68;42.58
10940;BME280;5522;42.696;23.494;2022-10-22T12:04:17;53896.03;;;-139.68;41.46
10940;BME280;5522;42.696;23.494;2022-10-22T12:06:59;53910.09;;;-139.68;45.24
10940;BME280;5522;42.696;23.494;2022-10-22T12:09:29;53877.94;;;-139.68;42.93
10940;BME280;5522;42.696;23.494;2022-10-22T12:12:02;53934.22;;;-139.68;41.57
10940;BME280;5522;42.696;23.494;2022-10-22T12:14:33;53877.94;;;-139.68;41.96
10940;BME280;5522;42.696;23.494;2022-10-22T12:17:06;53851.81;;;-139.68;40.92
10940;BME280;5522;42.696;23.494;2022-10-22T12:19:36;53883.97;;;-139.68;41.95
10940;BME280;5522;42.696;23.494;2022-10-22T12:22:12;53883.97;;;-139.68;42.76
10940;BME280;5522;42.696;23.494;2022-10-22T12:24:43;53922.16;;;-139.68;43.28
10940;BME280;5522;42.696;23.494;2022-10-22T12:27:16;53871.91;;;-139.68;43.77
10940;BME280;5522;42.696;23.494;2022-10-22T12:29:43;53892.00;;;-139.68;43.73
10940;BME280;5522;42.696;23.494;2022-10-22T12:32:12;53900.06;;;-139.68;44.31
10940;BME280;5522;42.696;23.494;2022-10-22T12:34:44;53853.81;;;-139.68;47.30
10940;BME280;5522;42.696;23.494;2022-10-22T12:37:12;53871.91;;;-139.68;44.01
10940;BME280;5522;42.696;23.494;2022-10-22T12:39:40;53877.94;;;-139.68;43.08
10940;BME280;5522;42.696;23.494;2022-10-22T12:42:12;53898.03;;;-139.68;44.10
10940;BME280;5522;42.696;23.494;2022-10-22T12:44:39;53906.06;;;-139.68;42.10
10940;BME280;5522;42.696;23.494;2022-10-22T12:47:07;53912.13;;;-139.68;43.64
10940;BME280;5522;42.696;23.494;2022-10-22T12:49:41;53873.91;;;-139.68;45.11
10940;BME280;5522;42.696;23.494;2022-10-22T12:52:14;53875.94;;;-139.68;45.04
10940;BME280;5522;42.696;23.494;2022-10-22T12:54:44;53883.97;;;-139.68;43.41
10940;BME280;5522;42.696;23.494;2022-10-22T12:57:15;53885.97;;;-139.68;45.11
10940;BME280;5522;42.696;23.494;2022-10-22T12:59:45;53906.06;;;-139.68;46.36